TimeCST,TemperatureF,Dew PointF,Humidity,Sea Level PressureIn,VisibilityMPH,Wind Direction,Wind SpeedMPH,Gust SpeedMPH,PrecipitationIn,Events,Conditions,WindDirDegrees,DateUTC
12:15 AM,17.4,14.7,89,29.99,10.0,West,13.8,-,N/A,,Clear,270,2013-12-15 06:15:00
12:35 AM,15.8,13.3,90,29.99,10.0,West,9.2,-,N/A,,Clear,260,2013-12-15 06:35:00
12:55 AM,14.9,12.4,90,29.99,10.0,West,9.2,-,N/A,,Scattered Clouds,260,2013-12-15 06:55:00
1:15 AM,14.4,12.0,90,29.99,10.0,West,9.2,-,N/A,,Mostly Cloudy,260,2013-12-15 07:15:00
1:35 AM,15.6,13.3,90,30.00,10.0,West,10.4,-,N/A,,Overcast,260,2013-12-15 07:35:00
1:55 AM,16.9,14.2,89,29.99,10.0,West,13.8,18.4,N/A,,Overcast,260,2013-12-15 07:55:00
2:15 AM,16.2,13.1,88,30.00,10.0,West,12.7,18.4,N/A,,Scattered Clouds,260,2013-12-15 08:15:00
2:35 AM,16.7,13.6,88,30.00,10.0,West,15.0,21.9,N/A,,Mostly Cloudy,260,2013-12-15 08:35:00
2:55 AM,17.2,14.0,87,30.00,10.0,WSW,16.1,20.7,N/A,,Overcast,250,2013-12-15 08:55:00
3:15 AM,16.5,13.1,86,30.00,10.0,WSW,15.0,-,N/A,,Overcast,250,2013-12-15 09:15:00
3:35 AM,15.8,12.0,85,29.99,10.0,West,17.3,23.0,N/A,,Mostly Cloudy,260,2013-12-15 09:35:00
3:55 AM,14.9,11.3,86,29.99,10.0,West,18.4,24.2,N/A,,Mostly Cloudy,260,2013-12-15 09:55:00
4:15 AM,14.9,11.1,85,29.98,10.0,West,20.7,26.5,N/A,,Overcast,260,2013-12-15 10:15:00
4:35 AM,14.7,10.9,85,29.99,7.0,West,17.3,24.2,N/A,Snow,Light Snow,270,2013-12-15 10:35:00
4:55 AM,13.6,8.4,80,30.00,10.0,West,23.0,28.8,N/A,,Mostly Cloudy,280,2013-12-15 10:55:00
5:15 AM,13.8,8.6,80,30.01,7.0,West,18.4,28.8,N/A,,Overcast,270,2013-12-15 11:15:00
5:35 AM,13.8,8.8,80,30.02,10.0,West,20.7,25.3,N/A,Snow,Light Snow,270,2013-12-15 11:35:00
5:55 AM,13.6,8.6,80,30.02,10.0,West,17.3,-,N/A,,Overcast,270,2013-12-15 11:55:00
6:15 AM,12.2,7.3,81,30.03,10.0,West,15.0,21.9,N/A,,Mostly Cloudy,260,2013-12-15 12:15:00
6:35 AM,11.3,7.0,83,30.04,10.0,West,12.7,18.4,N/A,,Clear,260,2013-12-15 12:35:00
6:55 AM,10.8,6.8,84,30.04,10.0,West,10.4,-,N/A,,Clear,260,2013-12-15 12:55:00
7:15 AM,10.0,5.9,83,30.05,10.0,West,11.5,-,N/A,,Clear,260,2013-12-15 13:15:00
7:35 AM,9.5,5.2,83,30.05,10.0,West,11.5,-,N/A,,Clear,260,2013-12-15 13:35:00
7:55 AM,9.1,4.8,83,30.05,10.0,West,11.5,-,N/A,,Clear,260,2013-12-15 13:55:00
8:15 AM,9.1,4.6,82,30.06,10.0,West,12.7,-,N/A,,Clear,270,2013-12-15 14:15:00
8:35 AM,10.4,5.5,81,30.06,10.0,West,12.7,-,N/A,,Mostly Cloudy,270,2013-12-15 14:35:00
8:55 AM,11.1,5.9,80,30.06,10.0,West,11.5,-,N/A,,Overcast,260,2013-12-15 14:55:00
9:15 AM,11.8,6.8,80,30.06,10.0,West,12.7,-,N/A,,Overcast,260,2013-12-15 15:15:00
9:35 AM,12.2,7.2,80,30.07,10.0,West,13.8,-,N/A,,Overcast,270,2013-12-15 15:35:00
9:55 AM,12.9,7.5,79,30.07,10.0,West,11.5,-,N/A,,Overcast,260,2013-12-15 15:55:00
10:15 AM,13.1,8.1,80,30.08,10.0,West,15.0,-,N/A,,Overcast,260,2013-12-15 16:15:00
10:35 AM,13.6,8.4,80,30.08,10.0,West,16.1,-,N/A,,Overcast,260,2013-12-15 16:35:00
10:55 AM,14.0,8.2,78,30.07,10.0,West,13.8,-,N/A,,Overcast,260,2013-12-15 16:55:00
11:15 AM,14.0,8.1,77,30.06,10.0,West,15.0,19.6,N/A,,Overcast,260,2013-12-15 17:15:00
11:35 AM,14.2,8.4,78,30.06,10.0,West,13.8,-,N/A,,Overcast,270,2013-12-15 17:35:00
11:55 AM,14.4,8.2,77,30.06,10.0,West,15.0,21.9,N/A,,Overcast,260,2013-12-15 17:55:00
12:15 PM,14.5,8.2,76,30.05,10.0,WSW,11.5,18.4,N/A,,Overcast,250,2013-12-15 18:15:00
12:35 PM,14.5,8.4,77,30.05,10.0,West,11.5,18.4,N/A,,Overcast,260,2013-12-15 18:35:00
12:55 PM,14.4,7.7,75,30.05,10.0,West,15.0,-,N/A,,Overcast,260,2013-12-15 18:55:00
1:15 PM,14.0,8.1,77,30.07,10.0,West,16.1,-,N/A,,Overcast,270,2013-12-15 19:15:00
1:35 PM,14.2,7.9,76,30.06,10.0,WSW,12.7,-,N/A,,Overcast,250,2013-12-15 19:35:00
1:55 PM,14.4,7.9,75,30.06,10.0,West,12.7,-,N/A,,Overcast,260,2013-12-15 19:55:00
2:15 PM,14.0,7.7,76,30.06,7.0,West,13.8,19.6,N/A,Snow,Light Snow,270,2013-12-15 20:15:00
2:35 PM,14.0,7.7,76,30.06,10.0,West,11.5,-,N/A,,Overcast,260,2013-12-15 20:35:00
2:55 PM,14.0,7.5,75,30.06,10.0,WSW,11.5,-,N/A,,Overcast,250,2013-12-15 20:55:00
3:15 PM,14.0,7.7,76,30.07,10.0,West,12.7,-,N/A,,Overcast,270,2013-12-15 21:15:00
3:35 PM,14.0,7.3,75,30.08,10.0,West,13.8,-,N/A,,Overcast,260,2013-12-15 21:35:00
3:55 PM,14.0,7.5,75,30.08,10.0,West,15.0,18.4,N/A,,Overcast,260,2013-12-15 21:55:00
4:15 PM,14.0,7.7,76,30.09,10.0,West,13.8,-,N/A,,Overcast,260,2013-12-15 22:15:00
4:35 PM,14.0,8.4,78,30.09,10.0,West,12.7,-,N/A,,Overcast,270,2013-12-15 22:35:00
4:55 PM,14.0,8.1,77,30.09,10.0,West,10.4,-,N/A,,Overcast,270,2013-12-15 22:55:00
5:15 PM,14.0,7.7,76,30.08,10.0,West,10.4,-,N/A,,Overcast,270,2013-12-15 23:15:00
5:35 PM,14.4,7.7,75,30.09,10.0,West,11.5,-,N/A,,Overcast,270,2013-12-15 23:35:00
5:55 PM,14.5,7.7,74,30.09,10.0,West,10.4,-,N/A,,Overcast,260,2013-12-15 23:55:00
6:15 PM,14.5,8.1,75,30.09,10.0,West,9.2,-,N/A,,Overcast,270,2013-12-16 00:15:00
6:35 PM,14.2,7.7,75,30.10,10.0,West,8.1,-,N/A,,Overcast,260,2013-12-16 00:35:00
6:55 PM,14.5,8.6,77,30.11,10.0,West,5.8,-,N/A,,Overcast,260,2013-12-16 00:55:00
7:15 PM,14.0,7.7,76,30.11,10.0,West,9.2,-,N/A,,Overcast,270,2013-12-16 01:15:00
7:35 PM,14.4,8.1,76,30.11,10.0,West,5.8,-,N/A,,Overcast,270,2013-12-16 01:35:00
7:55 PM,14.5,8.4,77,30.11,10.0,West,6.9,-,N/A,,Overcast,270,2013-12-16 01:55:00
8:15 PM,14.7,8.6,77,30.12,10.0,West,8.1,-,N/A,,Overcast,270,2013-12-16 02:15:00
8:35 PM,14.7,8.2,75,30.12,10.0,WNW,5.8,-,N/A,,Overcast,290,2013-12-16 02:35:00
8:55 PM,14.7,8.6,77,30.12,10.0,WNW,4.6,-,N/A,,Overcast,290,2013-12-16 02:55:00
9:15 PM,14.7,8.1,75,30.12,10.0,WNW,4.6,-,N/A,,Overcast,290,2013-12-16 03:15:00
9:35 PM,14.5,7.7,74,30.12,10.0,West,5.8,-,N/A,,Overcast,280,2013-12-16 03:35:00
9:55 PM,14.5,7.7,74,30.12,10.0,West,4.6,-,N/A,,Overcast,280,2013-12-16 03:55:00
10:15 PM,14.5,6.6,71,30.12,10.0,West,5.8,-,N/A,,Overcast,280,2013-12-16 04:15:00
10:35 PM,14.5,6.8,71,30.12,10.0,WNW,5.8,-,N/A,,Overcast,290,2013-12-16 04:35:00
10:55 PM,14.0,6.8,73,30.13,5.0,West,5.8,-,N/A,Snow,Light Snow,280,2013-12-16 04:55:00
11:15 PM,13.8,7.7,77,30.13,3.0,West,3.5,-,N/A,Snow,Light Snow,280,2013-12-16 05:15:00
11:35 PM,13.6,8.6,80,30.12,2.0,Calm,Calm,-,N/A,Snow,Light Snow,0,2013-12-16 05:35:00
11:55 PM,13.1,8.6,82,30.12,2.0,NW,3.5,-,N/A,Snow,Light Snow,310,2013-12-16 05:55:00